Time;durP1;ratioP1;P1;durP2;ratioP2;P2;SDS_P1;SDS_P2;PMS_P1;PMS_P2;Temp;Humidity;BMP_temperature;BMP_pressure;BME280_temperature;BME280_humidity;BME280_pressure;Samples;Min_cycle;Max_cycle;Signal;HPM_P1;HPM_P2
2022/11/29 00:01:34;;;;;;;420.75;30.15;;;9.10;99.90;;;;;;5112098;27;20070;-86
2022/11/29 00:04:00;;;;;;;176.43;19.63;;;8.30;99.90;;;;;;5112032;27;20719;-86
2022/11/29 00:06:29;;;;;;;429.27;29.88;;;8.30;99.90;;;;;;5096559;27;20050;-86
2022/11/29 00:08:57;;;;;;;155.85;20.85;;;9.00;99.90;;;;;;5128661;27;20099;-85
2022/11/29 00:14:14;;;;;;;137.90;20.23;;;8.20;99.90;;;;;;5129354;27;20082;-87
2022/11/29 00:16:39;;;;;;;102.35;18.67;;;8.20;99.90;;;;;;5129007;27;20046;-87
2022/11/29 00:19:06;;;;;;;67.22;19.73;;;8.20;99.90;;;;;;5113159;27;20533;-86
2022/11/29 00:21:31;;;;;;;235.25;23.40;;;8.40;99.90;;;;;;5111365;27;20046;-88
2022/11/29 00:23:57;;;;;;;141.93;21.02;;;7.20;99.90;;;;;;5112990;27;20047;-86
2022/11/29 00:26:23;;;;;;;215.20;24.50;;;8.10;99.90;;;;;;5111832;27;20039;-86
2022/11/29 00:28:49;;;;;;;80.65;19.25;;;8.10;99.90;;;;;;5112666;27;20039;-85
2022/11/29 00:31:19;;;;;;;76.03;19.35;;;8.50;99.90;;;;;;5111868;27;20141;-85
2022/11/29 00:33:45;;;;;;;141.02;22.35;;;8.10;99.90;;;;;;5147473;27;20063;-85
2022/11/29 00:36:11;;;;;;;133.68;19.70;;;8.10;99.90;;;;;;5113019;27;20081;-85
2022/11/29 00:38:37;;;;;;;73.03;18.50;;;8.70;99.90;;;;;;5128007;27;20035;-85
2022/11/29 00:41:03;;;;;;;72.97;16.35;;;8.40;99.90;;;;;;5095722;27;20050;-84
2022/11/29 00:43:29;;;;;;;75.13;18.52;;;8.10;99.90;;;;;;5111024;27;20046;-84
2022/11/29 00:45:54;;;;;;;70.60;17.17;;;8.10;99.90;;;;;;5112058;27;20063;-84
2022/11/29 00:48:20;;;;;;;80.45;18.98;;;8.90;99.90;;;;;;5147541;27;20042;-84
2022/11/29 00:50:46;;;;;;;60.97;16.20;;;8.10;99.90;;;;;;5111035;27;20097;-84
2022/11/29 00:53:11;;;;;;;67.68;17.15;;;8.00;99.90;;;;;;5112224;27;20342;-84
2022/11/29 00:55:37;;;;;;;54.92;16.85;;;8.00;99.90;;;;;;5128017;27;20163;-85
2022/11/29 00:58:03;;;;;;;66.18;17.50;;;8.00;99.90;;;;;;5112647;27;20058;-85
2022/11/29 01:00:28;;;;;;;60.88;17.23;;;8.00;99.90;;;;;;5128335;27;20121;-86
2022/11/29 01:02:54;;;;;;;88.63;17.58;;;8.80;99.90;;;;;;5129312;27;20207;-86
2022/11/29 01:05:20;;;;;;;62.00;16.73;;;8.00;99.90;;;;;;5111165;27;20055;-86
2022/11/29 01:07:45;;;;;;;156.02;20.67;;;8.00;99.90;;;;;;5111187;27;20170;-85
2022/11/29 01:10:11;;;;;;;165.40;21.00;;;7.90;99.90;;;;;;5111793;27;20043;-86
2022/11/29 01:12:38;;;;;;;159.70;22.20;;;8.00;99.90;;;;;;5093430;27;20393;-85
2022/11/29 01:15:06;;;;;;;126.15;20.35;;;7.90;99.90;;;;;;5129197;27;20541;-85
2022/11/29 01:17:34;;;;;;;114.03;19.85;;;7.90;99.90;;;;;;5111192;27;20126;-86
2022/11/29 01:20:00;;;;;;;178.20;23.20;;;8.20;99.90;;;;;;5111385;27;20074;-85
2022/11/29 01:22:25;;;;;;;132.20;19.35;;;7.90;99.90;;;;;;5111058;27;20157;-86
2022/11/29 01:24:51;;;;;;;126.70;18.50;;;7.90;99.90;;;;;;5110748;27;20142;-85
2022/11/29 01:27:17;;;;;;;70.72;16.40;;;8.60;99.90;;;;;;5111383;27;20042;-85
2022/11/29 01:29:42;;;;;;;129.52;19.92;;;8.70;99.90;;;;;;5093237;27;20054;-84
2022/11/29 01:32:08;;;;;;;50.53;16.10;;;7.90;99.90;;;;;;5111780;27;20127;-86
2022/11/29 01:34:34;;;;;;;89.53;17.63;;;8.00;99.90;;;;;;5127534;27;20085;-87
2022/11/29 01:36:59;;;;;;;54.40;16.02;;;8.10;99.90;;;;;;5094165;27;20043;-87
2022/11/29 01:39:25;;;;;;;47.20;14.60;;;7.90;99.90;;;;;;5093926;27;20098;-86
2022/11/29 01:41:50;;;;;;;53.20;13.95;;;8.50;99.90;;;;;;5076623;27;20053;-86
2022/11/29 01:44:16;;;;;;;56.83;15.45;;;7.90;99.90;;;;;;5127459;27;20103;-86
2022/11/29 01:46:45;;;;;;;53.53;15.20;;;8.30;99.90;;;;;;5127566;27;20042;-87
2022/11/29 01:49:21;;;;;;;93.07;18.02;;;8.90;99.90;;;;;;5129131;27;20398;-88
2022/11/29 01:51:50;;;;;;;82.05;16.17;;;7.90;99.90;;;;;;5109829;27;20042;-87
2022/11/29 01:54:16;;;;;;;83.63;15.73;;;7.90;99.90;;;;;;5127945;27;20067;-87
2022/11/29 01:56:46;;;;;;;54.60;15.23;;;8.00;99.90;;;;;;5093399;27;20134;-87
2022/11/29 01:59:15;;;;;;;57.33;15.32;;;7.90;99.90;;;;;;5127344;27;20120;-87
2022/11/29 02:01:41;;;;;;;68.20;15.65;;;7.90;99.90;;;;;;5110765;27;20039;-87
2022/11/29 02:04:08;;;;;;;60.50;15.40;;;8.60;99.90;;;;;;5126743;27;20174;-87
2022/11/29 02:06:34;;;;;;;56.13;14.82;;;8.70;99.90;;;;;;5095490;27;20049;-87
2022/11/29 02:09:01;;;;;;;71.60;16.05;;;7.90;99.90;;;;;;5092949;27;20176;-87
2022/11/29 02:11:48;;;;;;;68.18;15.65;;;9.00;99.90;;;;;;5110643;27;20045;-87
2022/11/29 02:14:42;;;;;;;66.90;15.70;;;7.90;99.90;;;;;;5110988;27;20129;-86
2022/11/29 02:17:27;;;;;;;50.42;15.05;;;7.90;99.90;;;;;;5126954;27;20118;-86
2022/11/29 02:20:06;;;;;;;60.47;14.52;;;8.20;99.90;;;;;;5111575;27;20488;-86
2022/11/29 02:22:58;;;;;;;40.55;14.35;;;7.80;99.90;;;;;;5127526;27;20046;-86
2022/11/29 02:25:52;;;;;;;41.28;14.10;;;7.80;99.90;;;;;;5130351;27;20043;-86
2022/11/29 02:28:20;;;;;;;49.63;14.90;;;7.80;99.90;;;;;;5132764;27;20046;-85
2022/11/29 02:31:04;;;;;;;45.90;14.20;;;7.80;99.90;;;;;;5130787;27;20073;-86
2022/11/29 02:33:32;;;;;;;42.92;14.57;;;7.80;99.90;;;;;;5131226;27;20045;-86
2022/11/29 02:36:24;;;;;;;51.63;14.68;;;7.80;99.90;;;;;;5131908;27;20049;-86
2022/11/29 02:39:18;;;;;;;39.83;13.32;;;7.80;99.90;;;;;;5113756;27;20077;-86
2022/11/29 02:41:48;;;;;;;55.00;15.68;;;7.80;99.90;;;;;;5114330;27;20394;-86
2022/11/29 02:44:46;;;;;;;50.47;16.63;;;7.80;99.90;;;;;;5131706;27;20388;-86
2022/11/29 02:47:37;;;;;;;75.32;15.88;;;7.80;99.90;;;;;;5105754;27;20115;-86
2022/11/29 02:50:12;;;;;;;55.70;18.63;;;7.80;99.90;;;;;;5119880;27;20082;-86
2022/11/29 02:52:50;;;;;;;41.63;14.10;;;7.70;99.90;;;;;;5131177;27;20107;-86
2022/11/29 02:55:19;;;;;;;36.55;14.68;;;7.70;99.90;;;;;;5113819;27;20513;-86
2022/11/29 02:58:00;;;;;;;53.38;15.82;;;8.10;99.90;;;;;;5114867;27;20046;-86
2022/11/29 03:00:27;;;;;;;51.00;15.07;;;7.70;99.90;;;;;;5129983;27;20039;-86
2022/11/29 03:03:12;;;;;;;40.15;15.18;;;7.70;99.90;;;;;;5097053;27;20481;-85
2022/11/29 03:05:49;;;;;;;36.83;12.63;;;8.20;99.90;;;;;;5113991;27;20039;-86
2022/11/29 03:08:34;;;;;;;43.83;13.98;;;7.70;99.90;;;;;;5113049;27;20126;-88
2022/11/29 03:11:36;;;;;;;44.10;13.93;;;7.70;99.90;;;;;;5131249;27;20126;-86
2022/11/29 03:14:39;;;;;;;46.33;13.73;;;7.70;99.90;;;;;;5131116;27;20572;-86
2022/11/29 03:17:21;;;;;;;37.78;12.82;;;7.70;99.90;;;;;;5112689;27;20042;-86
2022/11/29 03:20:31;;;;;;;43.83;14.00;;;7.70;99.90;;;;;;5131053;27;20429;-86
2022/11/29 03:23:22;;;;;;;50.67;15.52;;;7.70;99.90;;;;;;5113795;27;20046;-86
2022/11/29 03:26:17;;;;;;;34.10;14.02;;;7.70;99.90;;;;;;5112339;27;20488;-86
2022/11/29 03:29:08;;;;;;;40.50;13.05;;;7.70;99.90;;;;;;5113173;27;20050;-86
2022/11/29 03:31:49;;;;;;;38.05;13.55;;;7.70;99.90;;;;;;5130980;27;20046;-87
2022/11/29 03:34:14;;;;;;;28.77;13.35;;;7.70;99.90;;;;;;5113078;27;20405;-86
2022/11/29 03:36:59;;;;;;;32.53;13.25;;;7.70;99.90;;;;;;5112419;27;20035;-86
2022/11/29 03:39:40;;;;;;;36.33;14.23;;;7.70;99.90;;;;;;5130075;27;20058;-86
2022/11/29 03:42:18;;;;;;;42.92;13.52;;;7.70;99.90;;;;;;5129391;27;20424;-86
2022/11/29 03:44:51;;;;;;;34.03;14.15;;;7.60;99.90;;;;;;5130719;27;20554;-86
2022/11/29 03:47:24;;;;;;;42.60;15.27;;;7.70;99.90;;;;;;5112765;27;20447;-86
2022/11/29 03:49:53;;;;;;;;;;;7.60;99.90;;;;;;5114082;27;20456;-86
2022/11/29 03:52:52;;;;;;;33.35;13.35;;;7.60;99.90;;;;;;5129142;27;19926;-86
2022/11/29 03:55:20;;;;;;;34.88;13.13;;;7.60;99.90;;;;;;5129055;27;20103;-87
2022/11/29 03:58:01;;;;;;;36.35;14.77;;;7.60;99.90;;;;;;5113854;27;20038;-86
2022/11/29 04:00:53;;;;;;;40.90;15.73;;;7.60;99.90;;;;;;5129794;27;20043;-86
2022/11/29 04:03:42;;;;;;;33.40;13.05;;;7.60;99.90;;;;;;5129086;27;20497;-86
2022/11/29 04:06:25;;;;;;;35.40;14.38;;;7.60;99.90;;;;;;5130232;27;20030;-85
2022/11/29 04:09:23;;;;;;;39.60;13.90;;;7.60;99.90;;;;;;5128699;27;20051;-86
2022/11/29 04:12:21;;;;;;;38.75;14.90;;;7.60;99.90;;;;;;5112207;27;20038;-85
2022/11/29 04:15:11;;;;;;;43.35;14.60;;;7.60;99.90;;;;;;5130324;27;20049;-84
2022/11/29 04:18:06;;;;;;;46.58;17.45;;;8.00;99.90;;;;;;5112083;27;20091;-85
2022/11/29 04:20:50;;;;;;;53.72;17.70;;;8.70;99.90;;;;;;5060907;27;20059;-85
2022/11/29 04:23:25;;;;;;;51.63;17.50;;;7.60;99.90;;;;;;5113219;27;20459;-85
2022/11/29 04:26:15;;;;;;;52.10;16.00;;;7.60;99.90;;;;;;5128219;27;20046;-85
2022/11/29 04:28:43;;;;;;;49.53;16.10;;;7.60;99.90;;;;;;5129952;27;20069;-85
2022/11/29 04:31:24;;;;;;;39.33;15.75;;;7.50;99.90;;;;;;5112067;27;20050;-84
2022/11/29 04:34:05;;;;;;;38.95;15.48;;;7.50;99.90;;;;;;5111472;27;20073;-86
2022/11/29 04:36:55;;;;;;;41.42;16.35;;;7.50;99.90;;;;;;5129634;27;20043;-85
2022/11/29 04:39:37;;;;;;;38.92;16.05;;;7.50;99.90;;;;;;5128010;27;20043;-85
2022/11/29 04:42:33;;;;;;;48.85;15.55;;;7.50;99.90;;;;;;5128763;27;20517;-85
2022/11/29 04:45:36;;;;;;;39.47;15.30;;;7.50;99.90;;;;;;5129492;27;20050;-85
2022/11/29 04:48:17;;;;;;;30.80;11.30;;;7.50;99.90;;;;;;5111257;27;20066;-84
2022/11/29 04:51:17;;;;;;;46.30;15.88;;;7.50;99.90;;;;;;5128466;27;20443;-85
2022/11/29 04:53:48;;;;;;;50.10;16.73;;;7.40;99.90;;;;;;5112246;27;20049;-85
2022/11/29 04:56:45;;;;;;;50.85;16.70;;;7.40;99.90;;;;;;5110452;27;20046;-84
2022/11/29 04:59:49;;;;;;;45.90;16.17;;;7.40;99.90;;;;;;5128447;27;20047;-85
2022/11/29 05:02:49;;;;;;;37.33;16.52;;;7.40;99.90;;;;;;5112115;27;20088;-84
2022/11/29 05:05:33;;;;;;;52.53;14.32;;;7.40;99.90;;;;;;5111166;27;20042;-84
2022/11/29 05:08:20;;;;;;;39.38;15.50;;;7.40;99.90;;;;;;5127975;27;20043;-84
2022/11/29 05:11:05;;;;;;;43.55;16.05;;;7.40;99.90;;;;;;5129564;27;20074;-85
2022/11/29 05:13:53;;;;;;;36.50;14.10;;;7.30;99.90;;;;;;5092768;27;20095;-84
2022/11/29 05:16:38;;;;;;;27.83;13.43;;;7.30;99.90;;;;;;5127870;27;20498;-86
2022/11/29 05:19:27;;;;;;;41.03;14.07;;;7.30;99.90;;;;;;5129011;27;20039;-85
2022/11/29 05:22:08;;;;;;;47.53;14.88;;;7.30;99.90;;;;;;5110279;27;20091;-85
2022/11/29 05:24:40;;;;;;;36.03;14.77;;;7.30;99.90;;;;;;5111450;27;20047;-86
2022/11/29 05:27:06;;;;;;;38.47;14.45;;;8.00;99.90;;;;;;5111015;27;20043;-86
2022/11/29 05:30:01;;;;;;;32.80;14.05;;;7.30;99.90;;;;;;5127417;27;20183;-85
2022/11/29 05:32:52;;;;;;;36.63;14.32;;;7.20;99.90;;;;;;5128629;27;20570;-85
2022/11/29 05:35:41;;;;;;;34.55;14.30;;;7.20;99.90;;;;;;5128157;27;20382;-85
2022/11/29 05:38:22;;;;;;;38.85;14.88;;;7.20;99.90;;;;;;5113800;27;20054;-85
2022/11/29 05:41:05;;;;;;;31.98;14.98;;;7.20;99.90;;;;;;5111050;27;20097;-85
2022/11/29 05:44:10;;;;;;;35.75;14.18;;;7.20;99.90;;;;;;5129648;27;20062;-86
2022/11/29 05:46:54;;;;;;;32.40;14.18;;;7.20;99.90;;;;;;5100372;27;20087;-85
2022/11/29 05:49:42;;;;;;;31.27;14.05;;;7.20;99.90;;;;;;5132756;27;20715;-85
2022/11/29 05:52:43;;;;;;;35.17;13.10;;;7.20;99.90;;;;;;5111919;27;20129;-85
2022/11/29 05:55:17;;;;;;;37.67;12.73;;;7.10;99.90;;;;;;5127857;27;20070;-84
2022/11/29 05:58:01;;;;;;;31.70;14.05;;;7.10;99.90;;;;;;5128474;27;20043;-86
2022/11/29 06:00:42;;;;;;;31.05;12.68;;;7.10;99.90;;;;;;5127016;27;20421;-88
2022/11/29 06:03:18;;;;;;;33.63;12.48;;;8.20;99.90;;;;;;5127968;27;20054;-86
2022/11/29 06:05:53;;;;;;;30.35;14.23;;;7.10;99.90;;;;;;5128479;27;20037;-86
2022/11/29 06:08:31;;;;;;;30.83;11.80;;;7.10;99.90;;;;;;5127808;27;20106;-85
2022/11/29 06:11:19;;;;;;;26.75;12.20;;;7.10;99.90;;;;;;5111660;27;20047;-87
2022/11/29 06:13:51;;;;;;;22.27;11.38;;;7.00;99.90;;;;;;5126841;27;20099;-87
2022/11/29 06:16:29;;;;;;;32.35;12.55;;;7.00;99.90;;;;;;5127350;27;20082;-86
2022/11/29 06:19:15;;;;;;;24.38;11.65;;;6.90;99.90;;;;;;5128030;27;20074;-83
2022/11/29 06:21:41;;;;;;;27.90;11.25;;;6.90;99.90;;;;;;5110266;27;20031;-86
2022/11/29 06:24:07;;;;;;;33.60;12.18;;;6.90;99.90;;;;;;5127816;27;20057;-85
2022/11/29 06:26:51;;;;;;;31.50;11.93;;;6.90;99.90;;;;;;5126512;27;20138;-85
2022/11/29 06:29:39;;;;;;;26.45;11.90;;;6.90;99.90;;;;;;5127379;27;20469;-86
2022/11/29 06:32:28;;;;;;;28.02;11.65;;;6.90;99.90;;;;;;5128011;27;20042;-84
2022/11/29 06:35:08;;;;;;;25.05;10.75;;;6.90;99.90;;;;;;5109773;27;20118;-82
2022/11/29 06:37:39;;;;;;;24.67;12.15;;;6.80;99.90;;;;;;5110560;27;20389;-84
2022/11/29 06:40:08;;;;;;;27.40;12.00;;;6.90;99.90;;;;;;5127638;27;20427;-82
2022/11/29 06:42:34;;;;;;;30.55;12.20;;;6.90;99.90;;;;;;5126865;27;20413;-83
2022/11/29 06:45:00;;;;;;;32.88;11.48;;;6.90;99.90;;;;;;5094465;27;20054;-82
2022/11/29 06:47:51;;;;;;;34.92;12.00;;;6.90;99.90;;;;;;5109716;27;20194;-82
2022/11/29 06:50:25;;;;;;;29.80;10.98;;;6.90;99.90;;;;;;5127687;27;20545;-82
2022/11/29 06:53:08;;;;;;;32.45;11.90;;;6.90;99.90;;;;;;5110216;27;20549;-82
2022/11/29 06:55:49;;;;;;;31.95;9.55;;;6.90;99.90;;;;;;5127065;27;20051;-82
2022/11/29 06:58:43;;;;;;;29.70;11.63;;;7.40;99.90;;;;;;5110465;27;20046;-82
2022/11/29 07:01:37;;;;;;;39.58;10.15;;;7.00;99.90;;;;;;5126747;27;20054;-82
2022/11/29 07:04:09;;;;;;;;;;;7.10;99.90;;;;;;5127222;27;20050;-82
2022/11/29 07:06:34;;;;;;;35.15;9.25;;;7.10;99.90;;;;;;5127902;27;19919;-82
2022/11/29 07:09:09;;;;;;;30.13;11.15;;;8.00;99.90;;;;;;5126547;27;20039;-82
2022/11/29 07:11:35;;;;;;;27.88;9.20;;;7.70;99.90;;;;;;5113491;27;20070;-82
2022/11/29 07:14:01;;;;;;;28.38;10.32;;;7.20;99.90;;;;;;5113380;27;20039;-82
2022/11/29 07:16:36;;;;;;;24.80;9.32;;;7.30;99.90;;;;;;5113435;27;20043;-82
2022/11/29 07:19:31;;;;;;;30.20;9.77;;;7.30;99.90;;;;;;5131505;27;20138;-83
2022/11/29 07:21:59;;;;;;;28.67;9.13;;;7.30;99.90;;;;;;5129741;27;20042;-83
2022/11/29 07:24:31;;;;;;;29.23;7.85;;;6.80;99.90;;;;;;5130787;27;20485;-78
2022/11/29 07:27:24;;;;;;;23.33;8.17;;;7.40;99.90;;;;;;5130068;27;20482;-79
2022/11/29 07:30:14;;;;;;;28.92;8.80;;;7.40;99.90;;;;;;5112610;27;20053;-78
2022/11/29 07:32:50;;;;;;;31.30;8.10;;;7.40;99.90;;;;;;5130655;27;20070;-78
2022/11/29 07:35:37;;;;;;;21.55;8.45;;;7.40;99.90;;;;;;5129553;27;20049;-78
2022/11/29 07:38:05;;;;;;;23.92;8.38;;;7.40;99.90;;;;;;5112428;27;20045;-78
2022/11/29 07:40:40;;;;;;;24.38;9.32;;;7.40;99.90;;;;;;5113820;27;20046;-78
2022/11/29 07:43:24;;;;;;;21.48;8.98;;;7.40;99.90;;;;;;5112389;27;20039;-78
2022/11/29 07:45:51;;;;;;;30.10;10.07;;;7.50;99.90;;;;;;5113900;27;20090;-79
2022/11/29 07:48:17;;;;;;;27.15;9.68;;;7.40;99.90;;;;;;5129716;27;20080;-79
2022/11/29 07:50:43;;;;;;;24.40;9.65;;;7.40;99.90;;;;;;5113047;27;20437;-79
2022/11/29 07:53:20;;;;;;;35.78;10.70;;;7.40;99.90;;;;;;5130415;27;20057;-79
2022/11/29 07:55:47;;;;;;;21.40;10.25;;;7.40;99.90;;;;;;5112390;27;20090;-78
2022/11/29 07:58:14;;;;;;;22.92;9.77;;;7.40;99.90;;;;;;5113360;27;20053;-78
2022/11/29 08:00:41;;;;;;;24.40;11.00;;;7.30;99.90;;;;;;5129144;27;20130;-79
2022/11/29 08:03:07;;;;;;;25.75;9.38;;;7.30;99.90;;;;;;5130392;27;20171;-78
2022/11/29 08:05:34;;;;;;;21.98;10.70;;;7.30;99.90;;;;;;5129728;27;20054;-79
2022/11/29 08:07:59;;;;;;;21.83;10.93;;;7.30;99.90;;;;;;5112417;27;20516;-79
2022/11/29 08:10:25;;;;;;;22.02;9.38;;;8.30;99.90;;;;;;5113302;27;20081;-78
2022/11/29 08:12:52;;;;;;;24.50;10.15;;;7.90;99.90;;;;;;5128680;27;20087;-79
2022/11/29 08:15:19;;;;;;;24.35;9.20;;;7.70;99.90;;;;;;5130003;27;20043;-79
2022/11/29 08:17:45;;;;;;;19.17;8.75;;;7.40;99.90;;;;;;5128710;27;20039;-79
2022/11/29 08:20:13;;;;;;;35.88;11.43;;;7.40;99.90;;;;;;5129982;27;20050;-79
2022/11/29 08:22:38;;;;;;;24.33;10.02;;;7.40;99.90;;;;;;5111052;27;20042;-79
2022/11/29 08:25:05;;;;;;;23.98;9.65;;;7.40;99.90;;;;;;5111837;27;20043;-79
2022/11/29 08:27:32;;;;;;;16.27;9.82;;;7.50;99.90;;;;;;5129993;27;20042;-79
2022/11/29 08:29:58;;;;;;;29.13;12.77;;;7.50;99.90;;;;;;5128855;27;20481;-79
2022/11/29 08:32:25;;;;;;;24.45;10.38;;;7.50;99.90;;;;;;5112752;27;20047;-79
2022/11/29 08:34:51;;;;;;;19.45;8.75;;;7.50;99.90;;;;;;5111076;27;20042;-79
2022/11/29 08:37:16;;;;;;;24.77;10.75;;;7.80;99.90;;;;;;5129493;27;20423;-79
2022/11/29 08:39:42;;;;;;;25.00;9.27;;;7.50;99.90;;;;;;5111980;27;20129;-79
2022/11/29 08:42:08;;;;;;;28.17;9.68;;;7.50;99.90;;;;;;5107737;27;20544;-79
2022/11/29 08:44:34;;;;;;;24.08;9.57;;;7.60;99.90;;;;;;5108652;27;20043;-79
2022/11/29 08:50:02;;;;;;;22.27;8.88;;;7.60;99.90;;;;;;5125914;27;20561;-79
2022/11/29 08:55:14;;;;;;;20.98;7.55;;;7.70;99.90;;;;;;5124506;27;20130;-79
2022/11/29 08:57:39;;;;;;;21.05;8.60;;;7.70;99.90;;;;;;5109459;27;20039;-79
2022/11/29 09:00:06;;;;;;;27.00;8.70;;;8.70;99.90;;;;;;5124819;27;20531;-79
2022/11/29 09:02:31;;;;;;;29.02;8.73;;;7.70;99.90;;;;;;5109416;27;20078;-79
2022/11/29 09:04:57;;;;;;;24.70;8.82;;;7.90;99.90;;;;;;5124774;27;20442;-79
2022/11/29 09:07:23;;;;;;;18.52;8.20;;;8.60;99.90;;;;;;5125578;27;20047;-79
2022/11/29 09:09:48;;;;;;;25.80;8.05;;;8.30;99.90;;;;;;5125148;27;20478;-79
2022/11/29 09:12:14;;;;;;;25.88;8.10;;;7.80;99.90;;;;;;5124219;27;20134;-79
2022/11/29 09:14:40;;;;;;;17.13;6.85;;;7.80;99.90;;;;;;5127177;27;20042;-79
2022/11/29 09:17:05;;;;;;;22.33;7.22;;;8.60;99.90;;;;;;5090493;27;20130;-79
2022/11/29 09:19:31;;;;;;;26.45;8.43;;;7.90;99.90;;;;;;5125298;27;20073;-79
2022/11/29 09:21:57;;;;;;;31.83;8.25;;;7.90;99.90;;;;;;5090205;27;20039;-79
2022/11/29 09:24:22;;;;;;;21.92;7.57;;;8.70;99.90;;;;;;5124915;27;20096;-79
2022/11/29 09:26:48;;;;;;;18.50;7.50;;;8.00;99.90;;;;;;5124246;27;20047;-79
2022/11/29 09:29:15;;;;;;;25.50;8.23;;;8.00;99.90;;;;;;5107424;27;20039;-79
2022/11/29 09:31:44;;;;;;;22.45;8.35;;;8.00;99.90;;;;;;5125473;27;20047;-79
2022/11/29 09:34:15;;;;;;;28.80;7.68;;;8.10;99.90;;;;;;5107316;27;20039;-79
2022/11/29 09:36:42;;;;;;;19.63;6.72;;;8.10;99.90;;;;;;5125194;27;20486;-79
2022/11/29 09:39:11;;;;;;;24.08;7.25;;;8.10;99.90;;;;;;5107045;27;20035;-79
2022/11/29 09:41:55;;;;;;;22.15;7.18;;;8.20;99.90;;;;;;5107787;28;20126;-79
2022/11/29 09:44:58;;;;;;;21.67;6.93;;;8.20;99.90;;;;;;5125474;27;20406;-79
2022/11/29 09:47:54;;;;;;;24.10;7.90;;;8.30;99.90;;;;;;5072443;27;20051;-79
2022/11/29 09:50:27;;;;;;;20.25;7.47;;;8.30;99.90;;;;;;5107364;28;20443;-78
2022/11/29 09:53:27;;;;;;;17.95;5.38;;;9.20;99.90;;;;;;5107405;27;20375;-78
2022/11/29 09:56:17;;;;;;;19.13;6.82;;;9.20;99.90;;;;;;5069794;27;20058;-78
2022/11/29 09:58:48;;;;;;;21.13;6.93;;;8.50;99.90;;;;;;5108041;28;20517;-78
2022/11/29 10:01:25;;;;;;;19.48;6.90;;;8.80;99.90;;;;;;5106952;28;20035;-78
2022/11/29 10:03:54;;;;;;;28.13;6.90;;;8.50;99.90;;;;;;5106715;28;20039;-78
2022/11/29 10:06:25;;;;;;;16.70;6.30;;;8.60;99.90;;;;;;5108360;28;20609;-78
2022/11/29 10:09:12;;;;;;;28.42;6.85;;;8.60;99.90;;;;;;5123933;28;20042;-78
2022/11/29 10:11:57;;;;;;;20.80;7.03;;;9.30;99.90;;;;;;5107138;28;20084;-78
2022/11/29 10:14:30;;;;;;;18.17;6.75;;;8.70;99.90;;;;;;5107709;28;20061;-79
2022/11/29 10:17:12;;;;;;;20.83;6.75;;;8.80;99.90;;;;;;5107046;28;20390;-78
2022/11/29 10:19:49;;;;;;;12.10;6.03;;;8.90;99.90;;;;;;5125169;28;20444;-78
2022/11/29 10:22:37;;;;;;;31.80;10.20;;;9.70;99.90;;;;;;5123915;28;20079;-78
2022/11/29 10:25:06;;;;;;;19.23;5.88;;;9.00;99.90;;;;;;5123951;28;20429;-78
2022/11/29 10:27:40;;;;;;;25.63;7.47;;;9.10;99.90;;;;;;5107473;28;20047;-78
2022/11/29 10:30:13;;;;;;;19.40;6.78;;;9.10;99.90;;;;;;5106865;28;20039;-78
2022/11/29 10:32:40;;;;;;;19.80;6.65;;;9.20;99.90;;;;;;5124327;28;20047;-78
2022/11/29 10:35:13;;;;;;;17.48;6.80;;;9.20;99.90;;;;;;5123787;28;20049;-78
2022/11/29 10:37:39;;;;;;;22.17;6.68;;;9.20;99.90;;;;;;5123770;28;20130;-78
2022/11/29 10:40:13;;;;;;;21.40;7.82;;;9.30;99.90;;;;;;5124561;28;20126;-78
2022/11/29 10:42:47;;;;;;;15.98;6.65;;;9.30;99.90;;;;;;5106517;28;20393;-78
2022/11/29 10:45:33;;;;;;;22.15;7.88;;;9.30;99.90;;;;;;5109602;27;20051;-77
2022/11/29 10:48:10;;;;;;;19.17;7.07;;;9.30;99.90;;;;;;5110126;27;20494;-77
2022/11/29 10:50:38;;;;;;;18.80;7.85;;;9.40;99.90;;;;;;5127241;27;20126;-77
2022/11/29 10:53:12;;;;;;;21.75;8.70;;;9.40;99.90;;;;;;5127831;27;20047;-78
2022/11/29 10:56:01;;;;;;;20.35;10.60;;;9.50;99.90;;;;;;5127349;27;20043;-78
2022/11/29 10:58:29;;;;;;;18.02;8.32;;;9.50;99.90;;;;;;5093242;27;20051;-78
2022/11/29 11:01:06;;;;;;;15.48;9.52;;;9.50;99.90;;;;;;5127225;27;20070;-78
2022/11/29 11:03:42;;;;;;;20.48;9.32;;;9.80;99.90;;;;;;5110029;27;20131;-78
2022/11/29 11:06:11;;;;;;;15.25;9.38;;;9.70;99.90;;;;;;5110445;27;20054;-82
2022/11/29 11:08:40;;;;;;;13.73;8.77;;;9.70;99.90;;;;;;5109653;27;20047;-78
2022/11/29 11:11:07;;;;;;;14.05;8.98;;;9.70;99.90;;;;;;5110937;27;20046;-78
2022/11/29 11:13:33;;;;;;;20.67;9.07;;;9.70;99.90;;;;;;5093058;27;20086;-78
2022/11/29 11:16:16;;;;;;;12.68;8.07;;;9.70;99.90;;;;;;5127278;27;20046;-79
2022/11/29 11:18:42;;;;;;;16.73;8.40;;;9.70;99.90;;;;;;5110971;27;20047;-78
2022/11/29 11:21:14;;;;;;;13.02;7.47;;;10.20;99.90;;;;;;5127148;27;20444;-78
2022/11/29 11:24:01;;;;;;;18.10;8.45;;;9.70;99.90;;;;;;5128067;27;20497;-78
2022/11/29 11:26:41;;;;;;;16.40;7.35;;;9.70;99.90;;;;;;5126135;27;20051;-78
2022/11/29 11:29:18;;;;;;;15.68;8.15;;;9.70;99.90;;;;;;5109997;27;20387;-77
2022/11/29 11:31:52;;;;;;;18.70;8.48;;;9.70;99.90;;;;;;5110330;27;20051;-78
2022/11/29 11:34:34;;;;;;;17.25;8.90;;;9.70;99.90;;;;;;5126648;27;20551;-78
2022/11/29 11:37:18;;;;;;;24.85;9.32;;;9.70;99.90;;;;;;5127221;27;20054;-79
2022/11/29 11:39:46;;;;;;;18.20;8.80;;;9.70;99.90;;;;;;5126333;27;20095;-78
2022/11/29 11:42:37;;;;;;;12.63;6.88;;;9.70;99.90;;;;;;5126048;27;20051;-77
2022/11/29 11:45:12;;;;;;;14.48;8.57;;;9.70;99.90;;;;;;5127529;27;20059;-79
2022/11/29 11:47:48;;;;;;;12.93;7.88;;;9.70;99.90;;;;;;5126017;27;20070;-79
2022/11/29 11:50:27;;;;;;;12.00;6.85;;;9.70;99.90;;;;;;5109424;27;20051;-80
2022/11/29 11:52:57;;;;;;;10.30;7.07;;;9.60;99.90;;;;;;5109885;27;20089;-79
2022/11/29 11:55:45;;;;;;;13.48;6.82;;;9.60;99.90;;;;;;5125805;27;20145;-79
2022/11/29 11:58:16;;;;;;;13.75;7.70;;;9.60;99.90;;;;;;5126064;27;20062;-79
2022/11/29 12:00:53;;;;;;;10.20;6.93;;;9.50;99.90;;;;;;5108656;27;20051;-79
2022/11/29 12:03:34;;;;;;;11.25;6.53;;;9.70;99.90;;;;;;5126158;27;20091;-79
2022/11/29 12:06:26;;;;;;;13.63;7.72;;;9.50;99.90;;;;;;5128018;27;20051;-79
2022/11/29 12:09:01;;;;;;;12.52;7.38;;;9.50;99.90;;;;;;5063404;27;20047;-79
2022/11/29 12:11:44;;;;;;;10.30;6.88;;;10.10;99.90;;;;;;5111404;27;20095;-79
2022/11/29 12:14:19;;;;;;;11.95;7.05;;;9.50;99.90;;;;;;5110072;27;20054;-78
2022/11/29 12:16:49;;;;;;;10.18;6.47;;;9.40;99.90;;;;;;5126855;27;20490;-79
2022/11/29 12:19:21;;;;;;;9.60;6.18;;;9.40;99.90;;;;;;5128408;27;20481;-79
2022/11/29 12:21:51;;;;;;;7.80;4.77;;;9.40;99.90;;;;;;5127098;27;20054;-79
2022/11/29 12:24:23;;;;;;;11.93;6.18;;;9.30;99.90;;;;;;5110563;27;20101;-79
2022/11/29 12:26:52;;;;;;;9.82;6.35;;;9.40;99.90;;;;;;5126812;27;20058;-79
2022/11/29 12:29:21;;;;;;;10.77;6.65;;;9.30;99.90;;;;;;5126429;27;20046;-79
2022/11/29 12:31:58;;;;;;;7.25;4.95;;;9.20;99.90;;;;;;5108804;27;20118;-80
2022/11/29 12:34:32;;;;;;;9.50;6.35;;;9.10;99.90;;;;;;5109183;27;20043;-79
2022/11/29 12:37:09;;;;;;;10.18;5.25;;;9.10;99.90;;;;;;5109300;27;20053;-79
2022/11/29 12:39:51;;;;;;;9.73;6.35;;;9.00;99.90;;;;;;5108443;27;20385;-79
2022/11/29 12:42:36;;;;;;;9.70;5.85;;;9.80;99.90;;;;;;5125223;27;20504;-78
2022/11/29 12:45:16;;;;;;;10.73;6.55;;;8.90;99.90;;;;;;5126657;27;20050;-79
2022/11/29 12:48:09;;;;;;;8.25;6.40;;;8.90;99.90;;;;;;5107648;27;20041;-80
2022/11/29 12:50:58;;;;;;;8.02;6.45;;;8.90;99.90;;;;;;5125565;27;20549;-80
2022/11/29 12:53:33;;;;;;;8.45;6.68;;;8.90;99.90;;;;;;5061815;27;20079;-80
2022/11/29 12:56:15;;;;;;;10.43;6.70;;;8.90;99.90;;;;;;5124963;27;20490;-80
2022/11/29 12:58:59;;;;;;;9.35;6.18;;;8.80;99.90;;;;;;5108345;27;20039;-80
2022/11/29 13:01:45;;;;;;;16.13;7.00;;;8.80;99.90;;;;;;5109012;27;20039;-80
2022/11/29 13:04:25;;;;;;;11.35;7.00;;;8.80;99.90;;;;;;5124582;27;20071;-80
2022/11/29 13:07:14;;;;;;;8.32;6.35;;;8.70;99.90;;;;;;5108613;27;20035;-80
2022/11/29 13:09:58;;;;;;;10.52;6.95;;;8.70;99.90;;;;;;5125471;27;20043;-79
2022/11/29 13:12:33;;;;;;;10.85;6.50;;;8.60;99.90;;;;;;5124922;27;20516;-79
2022/11/29 13:15:01;;;;;;;9.25;6.15;;;8.60;99.90;;;;;;5125182;27;20091;-79
2022/11/29 13:17:42;;;;;;;9.10;6.82;;;9.20;99.90;;;;;;5107402;27;20477;-78
2022/11/29 13:20:21;;;;;;;9.60;6.22;;;8.50;99.90;;;;;;5125006;27;20036;-79
2022/11/29 13:22:53;;;;;;;9.80;7.03;;;8.50;99.90;;;;;;5125742;27;20126;-79
2022/11/29 13:25:45;;;;;;;11.48;7.07;;;8.50;99.90;;;;;;5108316;27;20087;-79
2022/11/29 13:28:28;;;;;;;11.32;7.53;;;8.50;99.90;;;;;;5126352;27;20078;-80
2022/11/29 13:31:00;;;;;;;11.07;6.82;;;8.40;99.90;;;;;;5108050;27;20103;-78
2022/11/29 13:33:53;;;;;;;16.50;7.10;;;8.40;99.90;;;;;;5126339;27;20055;-78
2022/11/29 13:36:33;;;;;;;9.10;6.40;;;8.40;99.90;;;;;;5109938;27;20494;-80